Rechercher aéroport 
image banner adimage banner adimage banner ad
image banner ad

CA78 - City Hall

Situé à Riverside, United States

ICAO - CA78, IATA -

Données fournies par Airmate  

Information générale

Coordonnées: N33°58'50" W117°22'33"
Élévation : 977 feet MSL.
Variation magnétique : 14° East
Voir autres Aéroports à California

Données opérationnelles

Special qualification required
Heure actuelle UTC:
Heure actuelle locale:
Météo à : KRAL - Riverside Muni ( 7 km )
METAR: KRAL 291953Z VRB05KT 10SM CLR 35/10 A2989 RMK AO2 SLP101 T03500100
Voir NOTAMs / SUP AIP / TFR affectant cet aéroport [VIEW]
Fréquences de communication: [VIEW]

Pistes:

Coordonnées de l'aéroport

Adresse: Riverside United States

Vue satellite de CA78